createdAt,value
2022-08-08T00:02:59.633Z,1.02
2022-08-08T00:08:31.170Z,1.10
2022-08-08T00:14:17.225Z,1.10
2022-08-08T00:20:01.348Z,1.30
2022-08-08T00:25:44.863Z,1.33
2022-08-08T00:32:29.172Z,1.20
2022-08-08T00:37:47.918Z,1.38
2022-08-08T00:43:40.704Z,1.17
2022-08-08T00:49:24.471Z,1.20
2022-08-08T00:55:06.999Z,1.20
2022-08-08T01:00:44.582Z,1.33
2022-08-08T01:06:47.609Z,1.35
2022-08-08T01:12:42.009Z,1.52
2022-08-08T01:18:53.625Z,1.52
2022-08-08T01:24:22.408Z,1.40
2022-08-08T01:30:08.925Z,1.33
2022-08-08T01:36:23.058Z,1.20
2022-08-08T01:42:35.285Z,1.20
2022-08-08T01:48:30.701Z,1.17
2022-08-08T01:55:25.628Z,1.20
2022-08-08T02:00:21.743Z,1.20
2022-08-08T02:06:08.736Z,1.30
2022-08-08T02:11:59.435Z,1.50
2022-08-08T02:18:01.563Z,1.02
2022-08-08T02:23:35.377Z,1.42
2022-08-08T02:29:06.367Z,1.48
2022-08-08T02:35:06.437Z,1.48
2022-08-08T02:40:53.126Z,1.58
2022-08-08T02:46:54.262Z,1.42
2022-08-08T02:52:34.685Z,1.70
2022-08-08T02:58:43.759Z,1.20
2022-08-08T03:05:02.420Z,1.13
2022-08-08T03:10:57.084Z,1.33
2022-08-08T03:16:35.459Z,1.00
2022-08-08T03:21:59.550Z,1.00
2022-08-08T03:27:45.159Z,1.33
2022-08-08T03:33:55.038Z,1.20
2022-08-08T03:39:14.454Z,1.38
2022-08-08T03:44:38.772Z,1.83
2022-08-08T03:50:02.138Z,2.10
2022-08-08T03:55:57.812Z,2.40
2022-08-08T04:01:23.101Z,2.70
2022-08-08T04:06:56.183Z,2.03
2022-08-08T04:12:18.088Z,1.75
2022-08-08T04:17:58.295Z,1.88
2022-08-08T04:23:21.065Z,1.50
2022-08-08T04:28:42.906Z,1.67
2022-08-08T04:34:04.868Z,1.60
2022-08-08T04:40:05.869Z,2.00
2022-08-08T04:45:08.975Z,2.10
2022-08-08T04:50:38.295Z,2.35
2022-08-08T04:56:00.900Z,2.10
2022-08-08T05:01:22.884Z,2.05
2022-08-08T05:06:45.293Z,2.35
2022-08-08T05:12:09.246Z,1.70
2022-08-08T05:17:37.303Z,1.73
2022-08-08T05:23:13.055Z,1.60
2022-08-08T05:28:56.033Z,1.70
2022-08-08T05:34:34.055Z,1.60
2022-08-08T05:40:01.894Z,1.83
2022-08-08T05:45:41.366Z,1.73
2022-08-08T05:51:14.364Z,2.55
2022-08-08T05:56:42.398Z,2.80
2022-08-08T06:02:43.604Z,2.58
2022-08-08T06:08:10.229Z,2.28
2022-08-08T06:13:50.810Z,2.20
2022-08-08T06:19:16.936Z,2.28
2022-08-08T06:24:40.086Z,2.05
2022-08-08T06:30:11.909Z,1.98
2022-08-08T06:36:06.740Z,1.90
2022-08-08T06:41:33.553Z,1.98
2022-08-08T06:46:56.718Z,2.30
2022-08-08T06:52:19.162Z,2.55
2022-08-08T06:57:44.232Z,2.22
2022-08-08T07:03:52.261Z,2.67
2022-08-08T07:09:21.158Z,2.60
2022-08-08T07:14:58.269Z,2.58
2022-08-08T07:20:34.932Z,2.55
2022-08-08T07:26:05.328Z,3.13
2022-08-08T07:31:28.755Z,3.00
2022-08-08T07:36:58.718Z,3.28
2022-08-08T07:42:20.714Z,2.88
2022-08-08T07:47:54.850Z,2.33
2022-08-08T07:54:01.333Z,2.50
2022-08-08T07:59:16.375Z,2.28
2022-08-08T08:04:49.091Z,2.90
2022-08-08T08:10:18.159Z,2.30
2022-08-08T08:16:05.753Z,2.17
2022-08-08T08:21:35.379Z,2.50
2022-08-08T08:27:09.399Z,2.30
2022-08-08T08:32:36.767Z,2.00
2022-08-08T08:38:17.408Z,2.20
2022-08-08T08:43:42.416Z,2.13
2022-08-08T08:49:06.753Z,2.15
2022-08-08T08:54:34.125Z,2.03
2022-08-08T09:00:01.458Z,1.95
2022-08-08T09:05:54.518Z,2.20
2022-08-08T09:11:12.062Z,2.10
2022-08-08T09:16:34.155Z,2.00
2022-08-08T09:22:06.132Z,1.83
2022-08-08T09:27:41.793Z,1.88
2022-08-08T09:34:15.931Z,1.63
2022-08-08T09:38:59.795Z,1.60
2022-08-08T09:44:35.449Z,1.35
2022-08-08T09:50:01.492Z,1.38
2022-08-08T09:56:01.863Z,1.38
2022-08-08T10:01:14.488Z,1.30
2022-08-08T10:06:45.185Z,1.42
2022-08-08T10:12:27.835Z,1.50
2022-08-08T10:18:11.751Z,1.15
2022-08-08T10:23:48.282Z,1.50
2022-08-08T10:29:22.990Z,1.65
2022-08-08T10:34:58.451Z,1.50
2022-08-08T10:40:21.265Z,1.48
2022-08-08T10:45:57.075Z,1.45
2022-08-08T10:51:26.134Z,1.40
2022-08-08T10:56:57.652Z,1.52
2022-08-08T11:02:27.240Z,1.38
2022-08-08T11:08:30.583Z,1.30
2022-08-08T11:13:52.044Z,1.30
2022-08-08T11:19:24.930Z,1.27
2022-08-08T11:24:49.006Z,1.17
2022-08-08T11:30:20.100Z,1.15
2022-08-08T11:35:43.829Z,1.10
2022-08-08T11:41:05.818Z,1.00
2022-08-08T11:46:30.568Z,1.10
2022-08-08T11:51:55.470Z,1.00
2022-08-08T11:57:34.783Z,1.15
2022-08-08T12:02:58.549Z,1.20
2022-08-08T12:08:50.425Z,1.10
2022-08-08T12:14:22.195Z,1.00
2022-08-08T12:19:56.648Z,1.30
2022-08-08T12:25:31.036Z,1.10
2022-08-08T12:30:53.249Z,1.08
2022-08-08T12:36:16.356Z,1.17
2022-08-08T12:41:57.315Z,1.38
2022-08-08T12:47:58.016Z,1.17
2022-08-08T12:53:29.988Z,1.27
2022-08-08T12:58:54.489Z,1.27
2022-08-08T13:04:24.377Z,1.10
2022-08-08T13:10:05.277Z,1.30
2022-08-08T13:15:29.619Z,1.20
2022-08-08T13:20:51.386Z,1.20
2022-08-08T13:26:14.878Z,1.15
2022-08-08T13:31:46.976Z,1.00
2022-08-08T13:37:19.816Z,1.02
2022-08-08T13:42:50.414Z,1.10
2022-08-08T13:48:14.537Z,0.90
2022-08-08T13:53:40.595Z,1.00
2022-08-08T13:59:15.236Z,0.90
2022-08-08T14:04:37.163Z,1.30
2022-08-08T14:10:32.536Z,1.10
2022-08-08T14:16:03.723Z,0.95
2022-08-08T14:21:40.625Z,1.20
2022-08-08T14:27:27.274Z,0.90
2022-08-08T14:32:52.811Z,1.00
2022-08-08T14:38:34.485Z,1.02
2022-08-08T14:44:09.844Z,1.00
2022-08-08T14:49:37.961Z,1.27
2022-08-08T14:55:22.202Z,0.90
2022-08-08T15:00:57.321Z,0.93
2022-08-08T15:06:19.253Z,0.95
2022-08-08T15:11:46.474Z,1.10
2022-08-08T15:17:14.889Z,1.00
2022-08-08T15:22:37.550Z,1.13
2022-08-08T15:28:34.214Z,0.90
2022-08-08T15:33:58.426Z,0.77
2022-08-08T15:39:21.362Z,1.00
2022-08-08T15:44:43.595Z,0.80
2022-08-08T15:50:15.634Z,1.13
2022-08-08T15:55:43.102Z,0.90
2022-08-08T16:01:07.950Z,0.90
2022-08-08T16:06:31.146Z,0.90
2022-08-08T16:13:09.546Z,0.80
2022-08-08T16:17:57.288Z,1.00
2022-08-08T16:23:16.616Z,0.80
2022-08-08T16:28:38.841Z,0.90
2022-08-08T16:34:03.398Z,0.85
2022-08-08T16:40:01.240Z,0.82
2022-08-08T16:46:36.416Z,1.13
2022-08-08T16:50:49.779Z,0.95
2022-08-08T16:56:15.234Z,0.70
2022-08-08T17:01:39.689Z,0.75
2022-08-08T17:07:01.720Z,1.10
2022-08-08T17:12:28.377Z,0.80
2022-08-08T17:18:03.772Z,0.85
2022-08-08T17:24:00.878Z,1.00
2022-08-08T17:29:08.792Z,0.90
2022-08-08T17:34:48.044Z,1.17
2022-08-08T17:40:15.219Z,0.80
2022-08-08T17:45:37.332Z,0.82
2022-08-08T17:51:00.945Z,0.85
2022-08-08T17:56:22.877Z,0.95
2022-08-08T18:01:51.265Z,1.10
2022-08-08T18:08:03.128Z,1.20
2022-08-08T18:12:57.397Z,0.80
2022-08-08T18:18:29.453Z,0.80
2022-08-08T18:23:56.131Z,1.58
2022-08-08T18:29:20.777Z,2.58
2022-08-08T18:34:46.825Z,1.40
2022-08-08T18:40:13.022Z,2.10
2022-08-08T18:46:53.020Z,2.10
2022-08-08T18:51:42.074Z,2.13
2022-08-08T18:56:58.586Z,1.30
2022-08-08T19:02:27.836Z,1.23
2022-08-08T19:07:52.193Z,1.30
2022-08-08T19:13:21.737Z,1.88
2022-08-08T19:18:49.693Z,1.25
2022-08-08T19:24:34.123Z,1.30
2022-08-08T19:30:00.191Z,0.95
2022-08-08T19:35:25.718Z,0.90
2022-08-08T19:41:05.861Z,0.98
2022-08-08T19:46:28.029Z,1.20
2022-08-08T19:51:55.577Z,1.02
2022-08-08T19:57:17.462Z,1.40
2022-08-08T20:02:39.818Z,1.42
2022-08-08T20:08:27.945Z,1.40
2022-08-08T20:14:33.406Z,1.27
2022-08-08T20:19:26.321Z,2.00
2022-08-08T20:24:56.681Z,1.60
2022-08-08T20:30:53.614Z,1.48
2022-08-08T20:36:08.626Z,1.52
2022-08-08T20:41:32.113Z,1.30
2022-08-08T20:46:55.855Z,1.30
2022-08-08T20:52:17.738Z,1.35
2022-08-08T20:57:43.847Z,1.35
2022-08-08T21:03:09.640Z,1.40
2022-08-08T21:08:49.106Z,1.30
2022-08-08T21:14:11.341Z,1.50
2022-08-08T21:19:45.324Z,1.40
2022-08-08T21:25:13.484Z,1.30
2022-08-08T21:30:35.469Z,1.40
2022-08-08T21:36:13.559Z,1.10
2022-08-08T21:41:43.303Z,1.40
2022-08-08T21:48:03.905Z,1.45
2022-08-08T21:54:36.674Z,1.63
2022-08-08T21:58:38.864Z,1.58
2022-08-08T22:04:06.199Z,1.60
2022-08-08T22:09:37.211Z,1.58
2022-08-08T22:15:04.367Z,1.60
2022-08-08T22:20:28.351Z,1.60
2022-08-08T22:26:28.319Z,1.25
2022-08-08T22:31:31.928Z,1.73
2022-08-08T22:36:57.139Z,1.55
2022-08-08T22:42:27.164Z,1.42
2022-08-08T22:47:53.223Z,1.65
2022-08-08T22:54:29.354Z,1.58
2022-08-08T22:58:57.042Z,1.40
2022-08-08T23:04:31.901Z,1.30
2022-08-08T23:09:59.491Z,1.45
2022-08-08T23:16:38.914Z,1.40
2022-08-08T23:21:05.313Z,1.20
2022-08-08T23:26:29.792Z,1.60
2022-08-08T23:31:51.959Z,1.48
2022-08-08T23:37:13.844Z,1.60
2022-08-08T23:42:36.072Z,1.83
2022-08-08T23:49:03.336Z,1.70
2022-08-08T23:54:06.504Z,2.15
2022-08-08T23:59:23.270Z,2.00
